sensor_id;sensor_type;location;lat;lon;timestamp;P1;durP1;ratioP1;P2;durP2;ratioP2
8978;SDS011;4524;51.364;5.448;2023-11-22T00:00:09;16.35;;;9.63;;
8978;SDS011;4524;51.364;5.448;2023-11-22T00:02:38;11.55;;;6.80;;
8978;SDS011;4524;51.364;5.448;2023-11-22T00:05:06;15.10;;;8.27;;
8978;SDS011;4524;51.364;5.448;2023-11-22T00:07:35;15.18;;;8.10;;
8978;SDS011;4524;51.364;5.448;2023-11-22T00:10:08;11.57;;;6.10;;
8978;SDS011;4524;51.364;5.448;2023-11-22T00:12:36;15.00;;;8.05;;
8978;SDS011;4524;51.364;5.448;2023-11-22T00:15:05;18.25;;;8.68;;
8978;SDS011;4524;51.364;5.448;2023-11-22T00:17:35;24.88;;;10.52;;
8978;SDS011;4524;51.364;5.448;2023-11-22T00:20:04;16.70;;;9.60;;
8978;SDS011;4524;51.364;5.448;2023-11-22T00:22:34;17.20;;;8.43;;
8978;SDS011;4524;51.364;5.448;2023-11-22T00:25:02;17.67;;;9.23;;
8978;SDS011;4524;51.364;5.448;2023-11-22T00:27:32;17.20;;;8.50;;
8978;SDS011;4524;51.364;5.448;2023-11-22T00:30:00;14.68;;;8.63;;
8978;SDS011;4524;51.364;5.448;2023-11-22T00:32:28;17.48;;;9.45;;
8978;SDS011;4524;51.364;5.448;2023-11-22T00:34:56;15.45;;;9.13;;
8978;SDS011;4524;51.364;5.448;2023-11-22T00:37:25;13.68;;;8.30;;
8978;SDS011;4524;51.364;5.448;2023-11-22T00:39:53;19.20;;;7.22;;
8978;SDS011;4524;51.364;5.448;2023-11-22T00:42:21;13.48;;;6.28;;
8978;SDS011;4524;51.364;5.448;2023-11-22T00:44:50;15.55;;;8.57;;
8978;SDS011;4524;51.364;5.448;2023-11-22T00:47:18;9.43;;;5.07;;
8978;SDS011;4524;51.364;5.448;2023-11-22T00:49:46;15.63;;;7.70;;
8978;SDS011;4524;51.364;5.448;2023-11-22T00:52:14;17.05;;;9.13;;
8978;SDS011;4524;51.364;5.448;2023-11-22T00:54:42;15.65;;;8.07;;
8978;SDS011;4524;51.364;5.448;2023-11-22T00:57:10;15.55;;;7.88;;
8978;SDS011;4524;51.364;5.448;2023-11-22T00:59:38;11.85;;;7.22;;
8978;SDS011;4524;51.364;5.448;2023-11-22T01:02:08;17.55;;;7.82;;
8978;SDS011;4524;51.364;5.448;2023-11-22T01:04:36;14.73;;;7.40;;
8978;SDS011;4524;51.364;5.448;2023-11-22T01:07:04;15.68;;;8.38;;
8978;SDS011;4524;51.364;5.448;2023-11-22T01:09:32;14.40;;;8.07;;
8978;SDS011;4524;51.364;5.448;2023-11-22T01:12:01;14.98;;;8.35;;
8978;SDS011;4524;51.364;5.448;2023-11-22T01:14:29;16.25;;;7.50;;
8978;SDS011;4524;51.364;5.448;2023-11-22T01:16:57;9.70;;;5.03;;
8978;SDS011;4524;51.364;5.448;2023-11-22T01:19:27;15.40;;;7.63;;
8978;SDS011;4524;51.364;5.448;2023-11-22T01:21:55;18.08;;;7.35;;
8978;SDS011;4524;51.364;5.448;2023-11-22T01:24:23;17.20;;;7.35;;
8978;SDS011;4524;51.364;5.448;2023-11-22T01:26:52;16.60;;;9.05;;
8978;SDS011;4524;51.364;5.448;2023-11-22T01:29:20;13.75;;;7.47;;
8978;SDS011;4524;51.364;5.448;2023-11-22T01:32:07;14.20;;;8.32;;
8978;SDS011;4524;51.364;5.448;2023-11-22T01:34:38;13.35;;;6.60;;
8978;SDS011;4524;51.364;5.448;2023-11-22T01:37:06;10.35;;;5.55;;
8978;SDS011;4524;51.364;5.448;2023-11-22T01:39:34;13.70;;;6.10;;
8978;SDS011;4524;51.364;5.448;2023-11-22T01:42:02;14.48;;;6.55;;
8978;SDS011;4524;51.364;5.448;2023-11-22T01:44:33;13.05;;;7.32;;
8978;SDS011;4524;51.364;5.448;2023-11-22T01:47:01;11.43;;;7.10;;
8978;SDS011;4524;51.364;5.448;2023-11-22T01:49:32;19.10;;;8.77;;
8978;SDS011;4524;51.364;5.448;2023-11-22T01:52:03;14.55;;;7.07;;
8978;SDS011;4524;51.364;5.448;2023-11-22T01:54:32;10.13;;;5.13;;
8978;SDS011;4524;51.364;5.448;2023-11-22T01:57:01;15.80;;;7.43;;
8978;SDS011;4524;51.364;5.448;2023-11-22T01:59:29;15.65;;;7.30;;
8978;SDS011;4524;51.364;5.448;2023-11-22T02:01:59;13.90;;;7.10;;
8978;SDS011;4524;51.364;5.448;2023-11-22T02:04:28;13.48;;;6.82;;
8978;SDS011;4524;51.364;5.448;2023-11-22T02:06:56;18.75;;;7.28;;
8978;SDS011;4524;51.364;5.448;2023-11-22T02:09:25;11.45;;;6.07;;
8978;SDS011;4524;51.364;5.448;2023-11-22T02:12:12;15.45;;;8.27;;
8978;SDS011;4524;51.364;5.448;2023-11-22T02:14:40;11.93;;;5.88;;
8978;SDS011;4524;51.364;5.448;2023-11-22T02:17:08;10.68;;;6.32;;
8978;SDS011;4524;51.364;5.448;2023-11-22T02:19:36;15.15;;;8.05;;
8978;SDS011;4524;51.364;5.448;2023-11-22T02:22:04;11.20;;;6.47;;
8978;SDS011;4524;51.364;5.448;2023-11-22T02:24:34;11.00;;;6.85;;
8978;SDS011;4524;51.364;5.448;2023-11-22T02:27:02;16.48;;;7.80;;
8978;SDS011;4524;51.364;5.448;2023-11-22T02:29:31;12.70;;;7.28;;
8978;SDS011;4524;51.364;5.448;2023-11-22T02:31:59;13.23;;;7.20;;
8978;SDS011;4524;51.364;5.448;2023-11-22T02:34:27;16.02;;;7.40;;
8978;SDS011;4524;51.364;5.448;2023-11-22T02:36:55;11.43;;;7.20;;
8978;SDS011;4524;51.364;5.448;2023-11-22T02:39:31;15.75;;;7.78;;
8978;SDS011;4524;51.364;5.448;2023-11-22T02:42:26;12.93;;;7.57;;
8978;SDS011;4524;51.364;5.448;2023-11-22T02:44:54;11.65;;;7.47;;
8978;SDS011;4524;51.364;5.448;2023-11-22T02:47:23;14.98;;;7.97;;
8978;SDS011;4524;51.364;5.448;2023-11-22T02:49:51;12.88;;;7.35;;
8978;SDS011;4524;51.364;5.448;2023-11-22T02:52:21;14.65;;;7.15;;
8978;SDS011;4524;51.364;5.448;2023-11-22T02:54:51;12.45;;;7.03;;
8978;SDS011;4524;51.364;5.448;2023-11-22T02:57:20;15.15;;;6.72;;
8978;SDS011;4524;51.364;5.448;2023-11-22T02:59:47;15.70;;;8.35;;
8978;SDS011;4524;51.364;5.448;2023-11-22T03:02:15;13.80;;;7.28;;
8978;SDS011;4524;51.364;5.448;2023-11-22T03:04:44;16.17;;;8.27;;
8978;SDS011;4524;51.364;5.448;2023-11-22T03:07:12;16.33;;;7.78;;
8978;SDS011;4524;51.364;5.448;2023-11-22T03:09:40;10.93;;;6.25;;
8978;SDS011;4524;51.364;5.448;2023-11-22T03:12:11;12.40;;;6.95;;
8978;SDS011;4524;51.364;5.448;2023-11-22T03:14:39;16.33;;;5.70;;
8978;SDS011;4524;51.364;5.448;2023-11-22T03:17:10;12.85;;;7.22;;
8978;SDS011;4524;51.364;5.448;2023-11-22T03:19:39;14.85;;;5.60;;
8978;SDS011;4524;51.364;5.448;2023-11-22T03:22:09;13.95;;;6.60;;
8978;SDS011;4524;51.364;5.448;2023-11-22T03:24:36;10.63;;;6.60;;
8978;SDS011;4524;51.364;5.448;2023-11-22T03:27:04;14.52;;;8.43;;
8978;SDS011;4524;51.364;5.448;2023-11-22T03:29:34;13.13;;;6.78;;
8978;SDS011;4524;51.364;5.448;2023-11-22T03:32:02;14.45;;;6.65;;
8978;SDS011;4524;51.364;5.448;2023-11-22T03:34:30;17.23;;;8.20;;
8978;SDS011;4524;51.364;5.448;2023-11-22T03:36:58;20.17;;;6.95;;
8978;SDS011;4524;51.364;5.448;2023-11-22T03:39:26;11.02;;;5.75;;
8978;SDS011;4524;51.364;5.448;2023-11-22T03:41:54;16.42;;;8.60;;
8978;SDS011;4524;51.364;5.448;2023-11-22T03:44:23;13.40;;;6.65;;
8978;SDS011;4524;51.364;5.448;2023-11-22T03:46:53;15.65;;;6.60;;
8978;SDS011;4524;51.364;5.448;2023-11-22T03:49:21;16.95;;;8.05;;
8978;SDS011;4524;51.364;5.448;2023-11-22T03:51:49;13.35;;;6.32;;
8978;SDS011;4524;51.364;5.448;2023-11-22T03:54:17;14.57;;;6.93;;
8978;SDS011;4524;51.364;5.448;2023-11-22T03:56:45;13.77;;;6.05;;
8978;SDS011;4524;51.364;5.448;2023-11-22T03:59:13;13.05;;;7.80;;
8978;SDS011;4524;51.364;5.448;2023-11-22T04:01:41;12.70;;;7.05;;
8978;SDS011;4524;51.364;5.448;2023-11-22T04:04:11;11.77;;;6.40;;
8978;SDS011;4524;51.364;5.448;2023-11-22T04:06:39;11.52;;;6.55;;
8978;SDS011;4524;51.364;5.448;2023-11-22T04:09:07;11.18;;;6.10;;
8978;SDS011;4524;51.364;5.448;2023-11-22T04:11:38;18.42;;;7.18;;
8978;SDS011;4524;51.364;5.448;2023-11-22T04:14:06;12.50;;;6.05;;
8978;SDS011;4524;51.364;5.448;2023-11-22T04:16:34;13.60;;;6.43;;
8978;SDS011;4524;51.364;5.448;2023-11-22T04:19:03;12.45;;;5.40;;
8978;SDS011;4524;51.364;5.448;2023-11-22T04:21:33;13.05;;;6.88;;
8978;SDS011;4524;51.364;5.448;2023-11-22T04:24:01;16.52;;;6.35;;
8978;SDS011;4524;51.364;5.448;2023-11-22T04:26:29;11.43;;;6.25;;
8978;SDS011;4524;51.364;5.448;2023-11-22T04:28:57;14.07;;;7.68;;
8978;SDS011;4524;51.364;5.448;2023-11-22T04:31:25;11.68;;;6.60;;
8978;SDS011;4524;51.364;5.448;2023-11-22T04:33:53;16.05;;;7.20;;
8978;SDS011;4524;51.364;5.448;2023-11-22T04:36:24;9.25;;;5.70;;
8978;SDS011;4524;51.364;5.448;2023-11-22T04:38:53;11.70;;;6.03;;
8978;SDS011;4524;51.364;5.448;2023-11-22T04:41:21;13.05;;;6.18;;
8978;SDS011;4524;51.364;5.448;2023-11-22T04:43:51;10.25;;;5.78;;
8978;SDS011;4524;51.364;5.448;2023-11-22T04:46:19;10.07;;;5.93;;
8978;SDS011;4524;51.364;5.448;2023-11-22T04:48:47;12.63;;;6.85;;
8978;SDS011;4524;51.364;5.448;2023-11-22T04:51:17;9.43;;;5.35;;
8978;SDS011;4524;51.364;5.448;2023-11-22T04:53:45;11.90;;;6.25;;
8978;SDS011;4524;51.364;5.448;2023-11-22T04:56:15;12.38;;;5.57;;
8978;SDS011;4524;51.364;5.448;2023-11-22T04:58:43;12.27;;;7.13;;
8978;SDS011;4524;51.364;5.448;2023-11-22T05:01:11;13.57;;;6.53;;
8978;SDS011;4524;51.364;5.448;2023-11-22T05:03:41;12.70;;;6.47;;
8978;SDS011;4524;51.364;5.448;2023-11-22T05:06:09;15.93;;;7.18;;
8978;SDS011;4524;51.364;5.448;2023-11-22T05:08:37;13.40;;;7.85;;
8978;SDS011;4524;51.364;5.448;2023-11-22T05:11:05;17.15;;;7.45;;
8978;SDS011;4524;51.364;5.448;2023-11-22T05:13:35;16.52;;;7.45;;
8978;SDS011;4524;51.364;5.448;2023-11-22T05:16:03;23.42;;;7.15;;
8978;SDS011;4524;51.364;5.448;2023-11-22T05:18:32;17.10;;;7.75;;
8978;SDS011;4524;51.364;5.448;2023-11-22T05:21:00;25.58;;;6.85;;
8978;SDS011;4524;51.364;5.448;2023-11-22T05:23:29;27.98;;;9.05;;
8978;SDS011;4524;51.364;5.448;2023-11-22T05:25:58;45.47;;;8.13;;
8978;SDS011;4524;51.364;5.448;2023-11-22T05:28:27;36.53;;;10.25;;
8978;SDS011;4524;51.364;5.448;2023-11-22T05:30:56;33.13;;;8.50;;
8978;SDS011;4524;51.364;5.448;2023-11-22T05:33:24;36.80;;;8.75;;
8978;SDS011;4524;51.364;5.448;2023-11-22T05:35:52;40.33;;;9.10;;
8978;SDS011;4524;51.364;5.448;2023-11-22T05:38:21;72.32;;;10.80;;
8978;SDS011;4524;51.364;5.448;2023-11-22T05:40:49;55.00;;;9.50;;
8978;SDS011;4524;51.364;5.448;2023-11-22T05:43:17;41.92;;;7.38;;
8978;SDS011;4524;51.364;5.448;2023-11-22T05:45:51;19.20;;;8.50;;
8978;SDS011;4524;51.364;5.448;2023-11-22T05:48:21;26.50;;;8.32;;
8978;SDS011;4524;51.364;5.448;2023-11-22T05:50:49;31.38;;;8.63;;
8978;SDS011;4524;51.364;5.448;2023-11-22T05:53:18;20.13;;;8.32;;
8978;SDS011;4524;51.364;5.448;2023-11-22T05:55:47;32.63;;;8.00;;
8978;SDS011;4524;51.364;5.448;2023-11-22T05:58:16;34.17;;;7.80;;
8978;SDS011;4524;51.364;5.448;2023-11-22T06:00:44;20.60;;;9.38;;
8978;SDS011;4524;51.364;5.448;2023-11-22T06:03:34;27.75;;;7.68;;
8978;SDS011;4524;51.364;5.448;2023-11-22T06:06:04;37.95;;;9.75;;
8978;SDS011;4524;51.364;5.448;2023-11-22T06:08:33;35.38;;;9.10;;
8978;SDS011;4524;51.364;5.448;2023-11-22T06:11:01;20.35;;;8.52;;
8978;SDS011;4524;51.364;5.448;2023-11-22T06:13:29;29.55;;;7.78;;
8978;SDS011;4524;51.364;5.448;2023-11-22T06:15:57;49.42;;;8.98;;
8978;SDS011;4524;51.364;5.448;2023-11-22T06:18:26;17.25;;;7.32;;
8978;SDS011;4524;51.364;5.448;2023-11-22T06:20:57;52.95;;;10.40;;
8978;SDS011;4524;51.364;5.448;2023-11-22T06:23:25;34.08;;;6.15;;
8978;SDS011;4524;51.364;5.448;2023-11-22T06:25:54;37.25;;;9.10;;
8978;SDS011;4524;51.364;5.448;2023-11-22T06:28:22;48.95;;;9.55;;
8978;SDS011;4524;51.364;5.448;2023-11-22T06:30:51;42.25;;;9.10;;
8978;SDS011;4524;51.364;5.448;2023-11-22T06:33:19;50.65;;;9.13;;
8978;SDS011;4524;51.364;5.448;2023-11-22T06:35:47;53.67;;;10.63;;
8978;SDS011;4524;51.364;5.448;2023-11-22T06:38:16;39.60;;;8.68;;
8978;SDS011;4524;51.364;5.448;2023-11-22T06:40:44;30.75;;;8.02;;
8978;SDS011;4524;51.364;5.448;2023-11-22T06:43:12;36.70;;;8.00;;
8978;SDS011;4524;51.364;5.448;2023-11-22T06:45:40;20.05;;;7.85;;
8978;SDS011;4524;51.364;5.448;2023-11-22T06:48:08;36.65;;;8.20;;
8978;SDS011;4524;51.364;5.448;2023-11-22T06:50:37;23.85;;;8.93;;
8978;SDS011;4524;51.364;5.448;2023-11-22T06:53:25;28.17;;;8.35;;
8978;SDS011;4524;51.364;5.448;2023-11-22T06:55:54;31.38;;;7.55;;
8978;SDS011;4524;51.364;5.448;2023-11-22T06:58:21;49.80;;;8.65;;
8978;SDS011;4524;51.364;5.448;2023-11-22T07:00:49;76.55;;;11.98;;
8978;SDS011;4524;51.364;5.448;2023-11-22T07:03:17;42.60;;;9.32;;
8978;SDS011;4524;51.364;5.448;2023-11-22T07:05:47;37.80;;;8.55;;
8978;SDS011;4524;51.364;5.448;2023-11-22T07:08:36;33.00;;;10.05;;
8978;SDS011;4524;51.364;5.448;2023-11-22T07:11:04;33.67;;;9.65;;
8978;SDS011;4524;51.364;5.448;2023-11-22T07:13:36;29.08;;;9.88;;
8978;SDS011;4524;51.364;5.448;2023-11-22T07:16:06;26.00;;;8.77;;
8978;SDS011;4524;51.364;5.448;2023-11-22T07:18:34;21.80;;;8.57;;
8978;SDS011;4524;51.364;5.448;2023-11-22T07:23:32;36.10;;;10.55;;
8978;SDS011;4524;51.364;5.448;2023-11-22T07:26:01;32.78;;;10.82;;
8978;SDS011;4524;51.364;5.448;2023-11-22T07:28:29;23.65;;;9.85;;
8978;SDS011;4524;51.364;5.448;2023-11-22T07:30:57;21.80;;;10.20;;
8978;SDS011;4524;51.364;5.448;2023-11-22T07:33:26;25.77;;;10.05;;
8978;SDS011;4524;51.364;5.448;2023-11-22T07:35:54;29.58;;;11.40;;
8978;SDS011;4524;51.364;5.448;2023-11-22T07:41:32;33.40;;;11.73;;
8978;SDS011;4524;51.364;5.448;2023-11-22T07:44:01;29.73;;;11.70;;
8978;SDS011;4524;51.364;5.448;2023-11-22T07:46:29;29.52;;;12.73;;
8978;SDS011;4524;51.364;5.448;2023-11-22T07:48:57;35.25;;;14.18;;
8978;SDS011;4524;51.364;5.448;2023-11-22T07:51:25;36.25;;;13.82;;
8978;SDS011;4524;51.364;5.448;2023-11-22T07:53:54;33.38;;;12.68;;
8978;SDS011;4524;51.364;5.448;2023-11-22T07:56:22;29.60;;;13.23;;
8978;SDS011;4524;51.364;5.448;2023-11-22T07:58:53;31.23;;;14.15;;
8978;SDS011;4524;51.364;5.448;2023-11-22T08:01:21;32.20;;;13.60;;
8978;SDS011;4524;51.364;5.448;2023-11-22T08:03:49;33.38;;;13.80;;
8978;SDS011;4524;51.364;5.448;2023-11-22T08:06:18;43.03;;;15.10;;
8978;SDS011;4524;51.364;5.448;2023-11-22T08:08:47;38.67;;;15.85;;
8978;SDS011;4524;51.364;5.448;2023-11-22T08:11:15;43.22;;;16.33;;
8978;SDS011;4524;51.364;5.448;2023-11-22T08:13:44;38.65;;;17.48;;
8978;SDS011;4524;51.364;5.448;2023-11-22T08:16:13;44.28;;;17.98;;
8978;SDS011;4524;51.364;5.448;2023-11-22T08:18:41;39.17;;;17.15;;
8978;SDS011;4524;51.364;5.448;2023-11-22T08:21:10;43.63;;;16.38;;
8978;SDS011;4524;51.364;5.448;2023-11-22T08:23:38;49.50;;;18.38;;
8978;SDS011;4524;51.364;5.448;2023-11-22T08:26:07;48.45;;;20.05;;
8978;SDS011;4524;51.364;5.448;2023-11-22T08:31:04;50.70;;;18.58;;
8978;SDS011;4524;51.364;5.448;2023-11-22T08:33:37;44.30;;;18.83;;
8978;SDS011;4524;51.364;5.448;2023-11-22T08:36:06;48.38;;;19.38;;
8978;SDS011;4524;51.364;5.448;2023-11-22T08:38:35;48.25;;;18.40;;
8978;SDS011;4524;51.364;5.448;2023-11-22T08:43:32;46.08;;;18.20;;
8978;SDS011;4524;51.364;5.448;2023-11-22T08:46:20;52.22;;;19.05;;
8978;SDS011;4524;51.364;5.448;2023-11-22T08:48:49;45.03;;;19.15;;
8978;SDS011;4524;51.364;5.448;2023-11-22T08:51:18;50.95;;;20.13;;
8978;SDS011;4524;51.364;5.448;2023-11-22T08:53:46;53.05;;;21.15;;
8978;SDS011;4524;51.364;5.448;2023-11-22T08:56:14;46.63;;;18.30;;
8978;SDS011;4524;51.364;5.448;2023-11-22T08:58:42;51.22;;;18.42;;
8978;SDS011;4524;51.364;5.448;2023-11-22T09:01:10;44.88;;;19.50;;
8978;SDS011;4524;51.364;5.448;2023-11-22T09:03:41;43.55;;;18.25;;
8978;SDS011;4524;51.364;5.448;2023-11-22T09:06:12;43.33;;;17.77;;
8978;SDS011;4524;51.364;5.448;2023-11-22T09:08:41;44.88;;;16.85;;
8978;SDS011;4524;51.364;5.448;2023-11-22T09:11:09;41.50;;;18.45;;
8978;SDS011;4524;51.364;5.448;2023-11-22T09:13:37;46.58;;;19.80;;
8978;SDS011;4524;51.364;5.448;2023-11-22T09:16:06;40.80;;;17.10;;
8978;SDS011;4524;51.364;5.448;2023-11-22T09:18:35;37.28;;;15.52;;
8978;SDS011;4524;51.364;5.448;2023-11-22T09:21:04;40.92;;;17.98;;
8978;SDS011;4524;51.364;5.448;2023-11-22T09:23:36;32.95;;;14.27;;
8978;SDS011;4524;51.364;5.448;2023-11-22T09:26:05;33.03;;;15.43;;
8978;SDS011;4524;51.364;5.448;2023-11-22T09:28:33;37.75;;;17.48;;
8978;SDS011;4524;51.364;5.448;2023-11-22T09:31:01;41.58;;;17.13;;
8978;SDS011;4524;51.364;5.448;2023-11-22T09:33:33;44.60;;;17.33;;
8978;SDS011;4524;51.364;5.448;2023-11-22T09:36:01;40.85;;;18.83;;
8978;SDS011;4524;51.364;5.448;2023-11-22T09:38:36;42.67;;;17.42;;
8978;SDS011;4524;51.364;5.448;2023-11-22T09:41:04;43.42;;;18.40;;
8978;SDS011;4524;51.364;5.448;2023-11-22T09:43:34;44.95;;;17.52;;
8978;SDS011;4524;51.364;5.448;2023-11-22T09:46:03;39.22;;;17.75;;
8978;SDS011;4524;51.364;5.448;2023-11-22T09:48:31;40.50;;;17.67;;
8978;SDS011;4524;51.364;5.448;2023-11-22T09:51:01;36.45;;;17.02;;
8978;SDS011;4524;51.364;5.448;2023-11-22T09:56:24;42.28;;;18.05;;
8978;SDS011;4524;51.364;5.448;2023-11-22T09:58:54;39.25;;;16.48;;
8978;SDS011;4524;51.364;5.448;2023-11-22T10:01:23;40.70;;;19.00;;
8978;SDS011;4524;51.364;5.448;2023-11-22T10:03:51;42.28;;;16.13;;
8978;SDS011;4524;51.364;5.448;2023-11-22T10:06:19;35.72;;;15.18;;
8978;SDS011;4524;51.364;5.448;2023-11-22T10:08:47;37.13;;;16.90;;
8978;SDS011;4524;51.364;5.448;2023-11-22T10:11:17;34.70;;;15.38;;
8978;SDS011;4524;51.364;5.448;2023-11-22T10:13:47;37.25;;;15.05;;
8978;SDS011;4524;51.364;5.448;2023-11-22T10:16:16;36.05;;;15.98;;
8978;SDS011;4524;51.364;5.448;2023-11-22T10:18:46;35.28;;;16.30;;
8978;SDS011;4524;51.364;5.448;2023-11-22T10:21:20;37.47;;;14.27;;
8978;SDS011;4524;51.364;5.448;2023-11-22T10:23:49;35.83;;;14.25;;
8978;SDS011;4524;51.364;5.448;2023-11-22T10:26:20;39.08;;;16.35;;
8978;SDS011;4524;51.364;5.448;2023-11-22T10:28:50;40.40;;;15.25;;
8978;SDS011;4524;51.364;5.448;2023-11-22T10:31:19;37.15;;;16.60;;
8978;SDS011;4524;51.364;5.448;2023-11-22T10:33:48;34.67;;;15.98;;
8978;SDS011;4524;51.364;5.448;2023-11-22T10:36:16;34.60;;;15.98;;
8978;SDS011;4524;51.364;5.448;2023-11-22T10:38:46;32.70;;;14.57;;
8978;SDS011;4524;51.364;5.448;2023-11-22T10:41:15;32.03;;;15.25;;
8978;SDS011;4524;51.364;5.448;2023-11-22T10:43:45;34.45;;;15.73;;
8978;SDS011;4524;51.364;5.448;2023-11-22T10:46:13;34.10;;;14.52;;
8978;SDS011;4524;51.364;5.448;2023-11-22T10:48:43;34.88;;;15.82;;
8978;SDS011;4524;51.364;5.448;2023-11-22T10:51:12;32.85;;;14.48;;
8978;SDS011;4524;51.364;5.448;2023-11-22T10:53:42;34.63;;;15.27;;
8978;SDS011;4524;51.364;5.448;2023-11-22T10:56:16;34.83;;;15.55;;
8978;SDS011;4524;51.364;5.448;2023-11-22T10:58:50;32.28;;;14.27;;
8978;SDS011;4524;51.364;5.448;2023-11-22T11:01:19;35.03;;;15.48;;
8978;SDS011;4524;51.364;5.448;2023-11-22T11:03:52;30.65;;;13.77;;
8978;SDS011;4524;51.364;5.448;2023-11-22T11:08:58;30.27;;;14.43;;
8978;SDS011;4524;51.364;5.448;2023-11-22T11:11:27;36.92;;;14.43;;
8978;SDS011;4524;51.364;5.448;2023-11-22T11:13:58;29.73;;;13.60;;
8978;SDS011;4524;51.364;5.448;2023-11-22T11:16:27;31.98;;;14.63;;
8978;SDS011;4524;51.364;5.448;2023-11-22T11:19:00;36.20;;;15.40;;
8978;SDS011;4524;51.364;5.448;2023-11-22T11:21:29;35.08;;;15.38;;
8978;SDS011;4524;51.364;5.448;2023-11-22T11:23:57;32.42;;;13.75;;
8978;SDS011;4524;51.364;5.448;2023-11-22T11:26:32;32.53;;;14.38;;
8978;SDS011;4524;51.364;5.448;2023-11-22T11:29:03;33.72;;;15.25;;
8978;SDS011;4524;51.364;5.448;2023-11-22T11:31:32;37.97;;;16.48;;
8978;SDS011;4524;51.364;5.448;2023-11-22T11:34:06;37.08;;;17.77;;
8978;SDS011;4524;51.364;5.448;2023-11-22T11:36:36;42.92;;;18.23;;
8978;SDS011;4524;51.364;5.448;2023-11-22T11:39:06;39.47;;;16.63;;
8978;SDS011;4524;51.364;5.448;2023-11-22T11:41:38;36.13;;;17.75;;
8978;SDS011;4524;51.364;5.448;2023-11-22T11:44:08;35.63;;;16.65;;
8978;SDS011;4524;51.364;5.448;2023-11-22T11:46:37;44.90;;;19.65;;
8978;SDS011;4524;51.364;5.448;2023-11-22T11:49:07;40.78;;;18.40;;
8978;SDS011;4524;51.364;5.448;2023-11-22T11:51:36;33.13;;;15.85;;
8978;SDS011;4524;51.364;5.448;2023-11-22T11:54:04;35.30;;;15.73;;
8978;SDS011;4524;51.364;5.448;2023-11-22T11:56:34;34.47;;;14.68;;
8978;SDS011;4524;51.364;5.448;2023-11-22T11:59:02;35.67;;;15.65;;
8978;SDS011;4524;51.364;5.448;2023-11-22T12:01:31;34.33;;;16.95;;
8978;SDS011;4524;51.364;5.448;2023-11-22T12:04:00;34.75;;;15.50;;
8978;SDS011;4524;51.364;5.448;2023-11-22T12:06:29;28.50;;;11.88;;
8978;SDS011;4524;51.364;5.448;2023-11-22T12:09:00;36.35;;;15.25;;
8978;SDS011;4524;51.364;5.448;2023-11-22T12:11:28;32.15;;;16.15;;
8978;SDS011;4524;51.364;5.448;2023-11-22T12:13:57;31.35;;;13.85;;
8978;SDS011;4524;51.364;5.448;2023-11-22T12:16:25;34.25;;;14.52;;
8978;SDS011;4524;51.364;5.448;2023-11-22T12:18:55;31.25;;;14.80;;
8978;SDS011;4524;51.364;5.448;2023-11-22T12:21:25;32.80;;;13.98;;
8978;SDS011;4524;51.364;5.448;2023-11-22T12:23:54;35.08;;;16.20;;
8978;SDS011;4524;51.364;5.448;2023-11-22T12:26:22;35.05;;;14.75;;
8978;SDS011;4524;51.364;5.448;2023-11-22T12:28:50;29.35;;;14.63;;
8978;SDS011;4524;51.364;5.448;2023-11-22T12:31:31;30.92;;;14.68;;
8978;SDS011;4524;51.364;5.448;2023-11-22T12:34:03;30.17;;;13.75;;
8978;SDS011;4524;51.364;5.448;2023-11-22T12:36:33;27.88;;;12.43;;
8978;SDS011;4524;51.364;5.448;2023-11-22T12:39:02;26.63;;;13.00;;
8978;SDS011;4524;51.364;5.448;2023-11-22T12:41:34;27.10;;;12.65;;
8978;SDS011;4524;51.364;5.448;2023-11-22T12:46:50;21.55;;;9.80;;
8978;SDS011;4524;51.364;5.448;2023-11-22T12:49:25;26.25;;;11.27;;
8978;SDS011;4524;51.364;5.448;2023-11-22T12:51:54;26.35;;;12.07;;
8978;SDS011;4524;51.364;5.448;2023-11-22T12:54:23;25.75;;;11.65;;
8978;SDS011;4524;51.364;5.448;2023-11-22T12:56:52;26.80;;;13.40;;
8978;SDS011;4524;51.364;5.448;2023-11-22T12:59:25;26.92;;;11.48;;
8978;SDS011;4524;51.364;5.448;2023-11-22T13:01:57;19.85;;;9.02;;
8978;SDS011;4524;51.364;5.448;2023-11-22T13:04:28;25.13;;;11.40;;
8978;SDS011;4524;51.364;5.448;2023-11-22T13:06:58;26.48;;;10.88;;
8978;SDS011;4524;51.364;5.448;2023-11-22T13:09:27;25.13;;;11.75;;
8978;SDS011;4524;51.364;5.448;2023-11-22T13:11:55;23.02;;;11.80;;
8978;SDS011;4524;51.364;5.448;2023-11-22T13:14:24;23.83;;;10.98;;
8978;SDS011;4524;51.364;5.448;2023-11-22T13:16:57;18.50;;;9.13;;
8978;SDS011;4524;51.364;5.448;2023-11-22T13:19:25;24.33;;;11.75;;
8978;SDS011;4524;51.364;5.448;2023-11-22T13:21:55;21.80;;;9.55;;
8978;SDS011;4524;51.364;5.448;2023-11-22T13:24:23;26.45;;;11.43;;
8978;SDS011;4524;51.364;5.448;2023-11-22T13:26:51;25.98;;;12.13;;
8978;SDS011;4524;51.364;5.448;2023-11-22T13:29:19;26.13;;;10.52;;
8978;SDS011;4524;51.364;5.448;2023-11-22T13:31:47;18.63;;;9.35;;
8978;SDS011;4524;51.364;5.448;2023-11-22T13:34:15;22.40;;;11.55;;
8978;SDS011;4524;51.364;5.448;2023-11-22T13:36:43;22.88;;;10.70;;
8978;SDS011;4524;51.364;5.448;2023-11-22T13:41:41;24.90;;;11.15;;
8978;SDS011;4524;51.364;5.448;2023-11-22T13:44:09;21.45;;;10.35;;
8978;SDS011;4524;51.364;5.448;2023-11-22T13:46:37;21.90;;;10.43;;
8978;SDS011;4524;51.364;5.448;2023-11-22T13:49:06;25.15;;;12.38;;
8978;SDS011;4524;51.364;5.448;2023-11-22T13:51:34;30.02;;;11.88;;
8978;SDS011;4524;51.364;5.448;2023-11-22T13:54:02;27.88;;;11.73;;
8978;SDS011;4524;51.364;5.448;2023-11-22T13:56:31;28.50;;;12.88;;
8978;SDS011;4524;51.364;5.448;2023-11-22T13:58:59;28.33;;;13.30;;
8978;SDS011;4524;51.364;5.448;2023-11-22T14:01:28;29.52;;;13.00;;
8978;SDS011;4524;51.364;5.448;2023-11-22T14:03:56;32.80;;;12.85;;
8978;SDS011;4524;51.364;5.448;2023-11-22T14:06:24;24.17;;;11.55;;
8978;SDS011;4524;51.364;5.448;2023-11-22T14:08:53;29.25;;;14.32;;
8978;SDS011;4524;51.364;5.448;2023-11-22T14:11:21;28.55;;;10.85;;
8978;SDS011;4524;51.364;5.448;2023-11-22T14:13:51;28.35;;;12.63;;
8978;SDS011;4524;51.364;5.448;2023-11-22T14:16:39;28.20;;;12.82;;
8978;SDS011;4524;51.364;5.448;2023-11-22T14:19:11;29.83;;;11.32;;
8978;SDS011;4524;51.364;5.448;2023-11-22T14:21:39;32.25;;;13.32;;
8978;SDS011;4524;51.364;5.448;2023-11-22T14:24:07;20.10;;;9.90;;
8978;SDS011;4524;51.364;5.448;2023-11-22T14:29:05;25.70;;;11.25;;
8978;SDS011;4524;51.364;5.448;2023-11-22T14:31:33;30.05;;;12.98;;
8978;SDS011;4524;51.364;5.448;2023-11-22T14:34:03;30.13;;;12.45;;
8978;SDS011;4524;51.364;5.448;2023-11-22T14:36:31;24.73;;;12.75;;
8978;SDS011;4524;51.364;5.448;2023-11-22T14:38:59;28.00;;;13.00;;
8978;SDS011;4524;51.364;5.448;2023-11-22T14:41:27;27.23;;;13.38;;
8978;SDS011;4524;51.364;5.448;2023-11-22T14:43:56;36.28;;;13.15;;
8978;SDS011;4524;51.364;5.448;2023-11-22T14:46:25;28.00;;;12.05;;
8978;SDS011;4524;51.364;5.448;2023-11-22T14:48:53;31.70;;;16.90;;
8978;SDS011;4524;51.364;5.448;2023-11-22T14:51:21;34.20;;;15.40;;
8978;SDS011;4524;51.364;5.448;2023-11-22T14:53:49;33.50;;;15.50;;
8978;SDS011;4524;51.364;5.448;2023-11-22T14:56:18;32.90;;;17.10;;
8978;SDS011;4524;51.364;5.448;2023-11-22T14:58:46;34.50;;;16.13;;
8978;SDS011;4524;51.364;5.448;2023-11-22T15:01:20;31.80;;;14.93;;
8978;SDS011;4524;51.364;5.448;2023-11-22T15:03:51;33.30;;;15.25;;
8978;SDS011;4524;51.364;5.448;2023-11-22T15:06:20;53.17;;;17.13;;
8978;SDS011;4524;51.364;5.448;2023-11-22T15:08:48;30.38;;;15.43;;
8978;SDS011;4524;51.364;5.448;2023-11-22T15:11:17;28.83;;;14.50;;
8978;SDS011;4524;51.364;5.448;2023-11-22T15:13:45;30.23;;;14.13;;
8978;SDS011;4524;51.364;5.448;2023-11-22T15:16:13;34.30;;;15.35;;
8978;SDS011;4524;51.364;5.448;2023-11-22T15:18:42;32.05;;;16.20;;
8978;SDS011;4524;51.364;5.448;2023-11-22T15:21:11;30.83;;;15.18;;
8978;SDS011;4524;51.364;5.448;2023-11-22T15:23:40;27.67;;;13.13;;
8978;SDS011;4524;51.364;5.448;2023-11-22T15:26:08;34.95;;;16.00;;
8978;SDS011;4524;51.364;5.448;2023-11-22T15:28:36;28.30;;;14.05;;
8978;SDS011;4524;51.364;5.448;2023-11-22T15:31:04;26.05;;;13.05;;